Home / Local Weather & Traffic / California / Grapevine Past Weather

Grapevine, CA Past Weather

Last 30 Days

 
High: 66ºf @4:13 PM    Low: 63ºf @11:13 AM     Approx. Precipitation / Rain Total: in.
Time (PDT)Temp. (ºf)Humidity (%)Dew Point (ºf)Barometer (inHG)Wind Speed (mph)Wind DirectionWind Gust (mph)1hr. Precip / Rain Total (in.)Snow Depth
4:13 PM664342.86-6.95n13.9--
3:13 PM664544.04-8.69n13.9--
2:13 PM664242.24-7.82nne13.03--
1:13 PM654442.55-7.82n12.17--
12:13 PM645246.02-8.69nne13.03--
11:13 AM634641.89-8.69n12.17--
High: 71ºf @12:13 PM    Low: 67ºf @4:13 PM     Approx. Precipitation / Rain Total: in.
Time (PDT)Temp. (ºf)Humidity (%)Dew Point (ºf)Barometer (inHG)Wind Speed (mph)Wind DirectionWind Gust (mph)1hr. Precip / Rain Total (in.)Snow Depth
4:13 PM673941.22-6.95nne8.69--
3:13 PM703037.13-6.08nne8.69--
2:13 PM713038-4.34ne8.69--
1:13 PM692733.62-5.21ne7.82--
12:13 PM711825.36-5.21nne8.69--
11:13 AM702431.54-5.21nne8.69--
High: 75ºf @12:13 PM    Low: 69ºf @3:13 PM     Approx. Precipitation / Rain Total: in.
Time (PDT)Temp. (ºf)Humidity (%)Dew Point (ºf)Barometer (inHG)Wind Speed (mph)Wind DirectionWind Gust (mph)1hr. Precip / Rain Total (in.)Snow Depth
4:13 PM692935.41-5.21nne9.56--
3:13 PM692228.57-6.08nne9.56--
2:13 PM702330.49-6.08nne9.56--
1:13 PM731319.26-5.21nne7.82--
12:13 PM751218.95-3.48nne6.08--
11:13 AM741320.04-3.48ne6.95--
High: 70ºf @11:13 AM    Low: 65ºf @4:13 PM     Approx. Precipitation / Rain Total: in.
Time (PDT)Temp. (ºf)Humidity (%)Dew Point (ºf)Barometer (inHG)Wind Speed (mph)Wind DirectionWind Gust (mph)1hr. Precip / Rain Total (in.)Snow Depth
4:13 PM653637.39-6.08n10.43--
3:13 PM653435.94-6.95n9.56--
2:13 PM693338.69-5.21n7.82--
1:13 PM683237.03-4.34nne7.82--
12:13 PM703137.97-4.34sse8.69--
11:13 AM702936.27-5.21sse8.69--
High: 70ºf @11:13 AM    Low: 65ºf @12:13 PM     Approx. Precipitation / Rain Total: in.
Time (PDT)Temp. (ºf)Humidity (%)Dew Point (ºf)Barometer (inHG)Wind Speed (mph)Wind DirectionWind Gust (mph)1hr. Precip / Rain Total (in.)Snow Depth
4:13 PM673135.36-5.21nne8.69--
3:13 PM663436.82-6.95nne11.3--
2:13 PM663738.98-6.08n10.43--
1:13 PM654040.09-6.95nne12.17--
12:13 PM653435.94-6.08nne9.56--
11:13 AM702128.27-4.34ene6.95--
High: 77ºf @3:13 PM    Low: 75ºf @12:13 PM     Approx. Precipitation / Rain Total: in.
Time (PDT)Temp. (ºf)Humidity (%)Dew Point (ºf)Barometer (inHG)Wind Speed (mph)Wind DirectionWind Gust (mph)1hr. Precip / Rain Total (in.)Snow Depth
3:13 PM771322.39-6.08nnw10.43--
2:13 PM761117.7-6.95n9.56--
1:13 PM751218.95-6.08nne9.56--
12:13 PM751320.83-6.95ene9.56--
High: 73ºf @11:13 AM    Low: 65ºf @3:13 PM     Approx. Precipitation / Rain Total: in.
Time (PDT)Temp. (ºf)Humidity (%)Dew Point (ºf)Barometer (inHG)Wind Speed (mph)Wind DirectionWind Gust (mph)1hr. Precip / Rain Total (in.)Snow Depth
4:13 PM663436.82-6.08nne9.56--
3:13 PM653536.68-7.82nne11.3--
2:13 PM653234.42-6.95nne9.56--
12:13 PM682328.82-4.34ne7.82--
11:13 AM731826.99-3.48wnw9.56--
High: 71ºf @4:13 PM    Low: 65ºf @12:13 PM     Approx. Precipitation / Rain Total: in.
Time (PDT)Temp. (ºf)Humidity (%)Dew Point (ºf)Barometer (inHG)Wind Speed (mph)Wind DirectionWind Gust (mph)1hr. Precip / Rain Total (in.)Snow Depth
4:13 PM712331.33-4.34nne13.03--
3:13 PM702027.08-6.08nne11.3--
2:13 PM712230.24-6.08n11.3--
1:13 PM692632.68-6.95nne12.17--
12:13 PM652528.32-8.69nne12.17--
11:13 AM662226.07-6.08nne11.3--
High: 76ºf @4:13 PM    Low: 72ºf @11:13 AM     Approx. Precipitation / Rain Total: in.
Time (PDT)Temp. (ºf)Humidity (%)Dew Point (ºf)Barometer (inHG)Wind Speed (mph)Wind DirectionWind Gust (mph)1hr. Precip / Rain Total (in.)Snow Depth
4:13 PM762234.4-6.95nne13.03--
3:13 PM762537.62-6.95n12.17--
2:13 PM762436.59-7.82n16.51--
1:13 PM742636.93-8.69n13.9--
12:13 PM731826.99-8.69n13.03--
11:13 AM722332.17-7.82n13.03--
High: 77ºf @3:13 PM    Low: 75ºf @1:13 PM     Approx. Precipitation / Rain Total: in.
Time (PDT)Temp. (ºf)Humidity (%)Dew Point (ºf)Barometer (inHG)Wind Speed (mph)Wind DirectionWind Gust (mph)1hr. Precip / Rain Total (in.)Snow Depth
4:13 PM762537.62-6.08n13.03--
3:13 PM772235.23-7.82nne13.9--
2:13 PM772032.84-7.82n13.03--
1:13 PM752334.68-7.82n12.17--
12:13 PM761829.43-6.95n13.03--
11:13 AM761626.56-6.95n12.17--
High: 80ºf @11:13 AM    Low: 78ºf @1:13 PM     Approx. Precipitation / Rain Total: in.
Time (PDT)Temp. (ºf)Humidity (%)Dew Point (ºf)Barometer (inHG)Wind Speed (mph)Wind DirectionWind Gust (mph)1hr. Precip / Rain Total (in.)Snow Depth
4:13 PM782033.67-6.95nne10.43--
3:13 PM791831.86-6.95nne9.56--
2:13 PM782337.18-5.21ne10.43--
1:13 PM782134.89-6.95nne9.56--
12:13 PM792034.49-4.34nne6.95--
11:13 AM801629.77-4.34n7.82--
High: 80ºf @1:13 PM    Low: 77ºf @12:13 PM     Approx. Precipitation / Rain Total: in.
Time (PDT)Temp. (ºf)Humidity (%)Dew Point (ºf)Barometer (inHG)Wind Speed (mph)Wind DirectionWind Gust (mph)1hr. Precip / Rain Total (in.)Snow Depth
4:13 PM783144.89-7.82n13.03--
3:13 PM793246.6-7.82n13.03--
2:13 PM782943.15-8.69n11.3--
1:13 PM802944.86-6.08n10.43--
12:13 PM773244.86-6.95n9.56--
11:13 AM793044.9-4.34nne7.82--
High: 83ºf @11:13 AM    Low: 77ºf @1:13 PM     Approx. Precipitation / Rain Total: in.
Time (PDT)Temp. (ºf)Humidity (%)Dew Point (ºf)Barometer (inHG)Wind Speed (mph)Wind DirectionWind Gust (mph)1hr. Precip / Rain Total (in.)Snow Depth
4:13 PM783749.6-6.95n12.17--
3:13 PM783850.31-6.95n10.43--
2:13 PM783951.01-6.95n9.56--
1:13 PM773849.43-6.95nne10.43--
12:13 PM793448.21-5.21nne8.69--
11:13 AM832846.51-3.48nw6.08--
High: 79ºf @12:13 PM    Low: 76ºf @2:13 PM     Approx. Precipitation / Rain Total: in.
Time (PDT)Temp. (ºf)Humidity (%)Dew Point (ºf)Barometer (inHG)Wind Speed (mph)Wind DirectionWind Gust (mph)1hr. Precip / Rain Total (in.)Snow Depth
4:13 PM783447.34-6.08n11.3--
3:13 PM773345.67-6.95n13.03--
2:13 PM763949.24-7.82n12.17--
1:13 PM793347.42-6.08n9.56--
12:13 PM792742.14-5.21n9.56--
11:13 AM782842.24-6.08nw9.56--
High: 85ºf @12:13 PM    Low: 79ºf @4:13 PM     Approx. Precipitation / Rain Total: in.
Time (PDT)Temp. (ºf)Humidity (%)Dew Point (ºf)Barometer (inHG)Wind Speed (mph)Wind DirectionWind Gust (mph)1hr. Precip / Rain Total (in.)Snow Depth
4:13 PM793548.99-6.95n11.3--
3:13 PM793347.42-6.95n10.43--
2:13 PM823148.35-5.21ne11.3--
1:13 PM843250.94-5.21e13.03--
12:13 PM852545.21-6.08se12.17--
11:13 AM823047.48-6.08sse11.3--
High: 83ºf @12:13 PM    Low: 78ºf @4:13 PM     Approx. Precipitation / Rain Total: in.
Time (PDT)Temp. (ºf)Humidity (%)Dew Point (ºf)Barometer (inHG)Wind Speed (mph)Wind DirectionWind Gust (mph)1hr. Precip / Rain Total (in.)Snow Depth
4:13 PM783850.31-7.82n13.9--
3:13 PM823450.83-4.34ne11.3--
2:13 PM823350.03-4.34nne13.03--
12:13 PM832442.46-6.95sse17.38--
11:13 AM793145.76-11.3sse15.64--
High: 81ºf @12:13 PM    Low: 77ºf @3:13 PM     Approx. Precipitation / Rain Total: in.
Time (PDT)Temp. (ºf)Humidity (%)Dew Point (ºf)Barometer (inHG)Wind Speed (mph)Wind DirectionWind Gust (mph)1hr. Precip / Rain Total (in.)Snow Depth
4:13 PM784051.7-6.08n11.3--
3:13 PM773849.43-6.95n10.43--
2:13 PM793548.99-6.95nne10.43--
1:13 PM793448.21-6.08ne9.56--
12:13 PM813449.96-5.21ese11.3--
11:13 AM803348.29-5.21sse8.69--
High: 82ºf @1:13 PM    Low: 75ºf @5:13 PM     Approx. Precipitation / Rain Total: in.
Time (PDT)Temp. (ºf)Humidity (%)Dew Point (ºf)Barometer (inHG)Wind Speed (mph)Wind DirectionWind Gust (mph)1hr. Precip / Rain Total (in.)Snow Depth
5:13 PM754049.02-6.08n10.43--
4:13 PM773547.23-6.95n10.43--
3:13 PM813449.96-3.48n9.56--
2:13 PM803146.62-6.08ne11.3--
1:13 PM822845.65-4.34ese10.43--
12:13 PM812844.8-6.08sse10.43--
11:13 AM773144.03-5.21sse9.56--
High: 71ºf @5:13 PM    Low: 68ºf @11:13 AM     Approx. Precipitation / Rain Total: in.
Time (PDT)Temp. (ºf)Humidity (%)Dew Point (ºf)Barometer (inHG)Wind Speed (mph)Wind DirectionWind Gust (mph)1hr. Precip / Rain Total (in.)Snow Depth
5:13 PM714447.98-6.95n13.03--
4:13 PM714749.74-7.82n13.03--
3:13 PM714850.31-6.95n14.77--
2:13 PM704748.83-7.82-13.03--
1:13 PM694848.48-7.82n13.03--
12:13 PM704145.21-6.95nne12.17--
11:13 AM684646.44-6.95nne10.43--
10:13 AM684344.66-6.08n8.69--
High: 68ºf @4:13 PM    Low: ºf @6:13 PM     Approx. Precipitation / Rain Total: in.
Time (PDT)Temp. (ºf)Humidity (%)Dew Point (ºf)Barometer (inHG)Wind Speed (mph)Wind DirectionWind Gust (mph)1hr. Precip / Rain Total (in.)Snow Depth
6:13 PM---------
5:13 PM665348.37-6.95n13.9--
4:13 PM685350.22-6.95n15.64--
3:13 PM675550.29-6.95n13.9--
1:13 PM665649.85-7.82n13.03--
12:13 PM645547.5-7.82n12.17--
11:13 AM636551.04-6.95nne12.17--
10:13 AM627152.48-6.95n10.43--
High: 74ºf @3:13 PM    Low: 64ºf @6:13 PM     Approx. Precipitation / Rain Total: in.
Time (PDT)Temp. (ºf)Humidity (%)Dew Point (ºf)Barometer (inHG)Wind Speed (mph)Wind DirectionWind Gust (mph)1hr. Precip / Rain Total (in.)Snow Depth
6:13 PM645246.02-5.21nne8.69--
5:13 PM703238.78-5.21n9.56--
4:13 PM743141.43-4.34n12.17--
3:13 PM743040.59-5.21nnw9.56--
2:13 PM704748.83-3.48nw9.56--
1:13 PM704547.67-5.21nne8.69--
12:13 PM714045.45-5.21nne8.69--
11:13 AM704346.46-6.08nne8.69--
10:13 AM674846.65-6.08n8.69--
High: 74ºf @12:13 PM    Low: 71ºf @5:13 PM     Approx. Precipitation / Rain Total: in.
Time (PDT)Temp. (ºf)Humidity (%)Dew Point (ºf)Barometer (inHG)Wind Speed (mph)Wind DirectionWind Gust (mph)1hr. Precip / Rain Total (in.)Snow Depth
5:13 PM714347.36-6.95nne8.69--
4:13 PM714347.36-6.95nne10.43--
3:13 PM724147-6.95nne10.43--
2:13 PM724046.34-7.82nne10.43--
1:13 PM723542.84-6.95nne9.56--
12:13 PM743242.26-6.08nne9.56--
11:13 AM743343.06-5.21ne8.69--
10:13 AM723643.57-5.21ene7.82--
High: 71ºf @3:13 PM    Low: 67ºf @10:13 AM     Approx. Precipitation / Rain Total: in.
Time (PDT)Temp. (ºf)Humidity (%)Dew Point (ºf)Barometer (inHG)Wind Speed (mph)Wind DirectionWind Gust (mph)1hr. Precip / Rain Total (in.)Snow Depth
6:13 PM684545.86-6.08nne11.3--
5:13 PM714246.74-6.08nne11.3--
4:13 PM704145.21-6.95nne10.43--
3:13 PM714045.45-7.82nne10.43--
2:13 PM694244.94-6.95nne10.43--
1:13 PM713844.1-5.21nne10.43--
12:13 PM713138.83-6.95nne9.56--
11:13 AM693741.63-6.08ne8.69--
10:13 AM674142.52-5.21nne8.69--
High: 75ºf @4:13 PM    Low: 70ºf @6:13 PM     Approx. Precipitation / Rain Total: in.
Time (PDT)Temp. (ºf)Humidity (%)Dew Point (ºf)Barometer (inHG)Wind Speed (mph)Wind DirectionWind Gust (mph)1hr. Precip / Rain Total (in.)Snow Depth
6:13 PM703037.13-5.21n12.17--
5:13 PM742939.71-5.21n12.17--
4:13 PM752738.74-6.08nne13.03--
3:13 PM742535.94-6.95nne13.03--
2:13 PM732636.08-9.56nne13.03--
1:13 PM723038.86-7.82nne13.03--
12:13 PM722837.1-6.95nne12.17--
11:13 AM712735.33-6.95nne11.3--
10:13 AM713239.65-6.08nne9.56--
9:13 AM703641.81-5.21n8.69--
Past Weather Disclaimer Note regarding "Approx. Precipitation / Rain Total"

Past Weather Nearby

More Local Information

Bookmark and Share

Grapevine weather and traffic updates by locals

Write your own Grapevine, California report, forecast, or traffic update:

Please note by clicking on "Post" you acknowledge that you have read the Terms of Service and the Grapevine, CA report and/or forecast you are posting is in compliance with such terms. Be respectful. An inappropriate Grapevine, CA report and/or forecast will be removed by a moderator.
Become A Member